Time;durP1;ratioP1;P1;durP2;ratioP2;P2;SDS_P1;SDS_P2;PMS_P1;PMS_P2;Temp;Humidity;BMP_temperature;BMP_pressure;BME280_temperature;BME280_humidity;BME280_pressure;Samples;Min_cycle;Max_cycle;Signal;HPM_P1;HPM_P2
2023/08/21 00:02:00;;;;;;;2.95;1.40;;;25.20;90.50;;;;;;5048611;28;20065;-63
2023/08/21 00:04:26;;;;;;;2.20;1.48;;;25.10;90.50;;;;;;5022461;28;20049;-64
2023/08/21 00:06:52;;;;;;;2.28;1.50;;;24.90;92.00;;;;;;5047626;28;20052;-68
2023/08/21 00:09:18;;;;;;;2.70;1.45;;;25.00;90.50;;;;;;5032931;28;20041;-77
2023/08/21 00:11:44;;;;;;;2.85;1.40;;;25.00;90.50;;;;;;5029489;28;20048;-72
2023/08/21 00:14:09;;;;;;;1.83;1.23;;;24.90;90.60;;;;;;5040704;28;20043;-69
2023/08/21 00:16:35;;;;;;;3.10;1.80;;;24.80;90.30;;;;;;5050854;28;20052;-75
2023/08/21 00:19:01;;;;;;;4.30;1.63;;;24.90;90.40;;;;;;5044707;28;20041;-67
2023/08/21 00:21:26;;;;;;;2.75;1.55;;;25.00;90.40;;;;;;5044582;28;20063;-64
2023/08/21 00:23:52;;;;;;;2.53;1.60;;;25.10;90.40;;;;;;5042374;28;20045;-76
2023/08/21 00:26:18;;;;;;;3.88;1.77;;;24.90;90.30;;;;;;5039111;28;20095;-65
2023/08/21 00:28:44;;;;;;;3.53;1.65;;;24.70;90.30;;;;;;5032578;28;21980;-74
2023/08/21 00:31:09;;;;;;;3.05;1.40;;;24.90;90.30;;;;;;5051318;28;20040;-71
2023/08/21 00:33:37;;;;;;;3.83;1.60;;;24.90;90.30;;;;;;5032520;28;20056;-71
2023/08/21 00:36:03;;;;;;;3.03;1.60;;;24.70;90.30;;;;;;5052150;28;20214;-68
2023/08/21 00:38:28;;;;;;;2.60;1.50;;;24.50;90.10;;;;;;5052437;28;20146;-65
2023/08/21 00:40:54;;;;;;;3.28;1.40;;;24.90;91.70;;;;;;5049435;28;20080;-68
2023/08/21 00:43:20;;;;;;;3.25;1.35;;;24.80;90.60;;;;;;5035103;28;20406;-75
2023/08/21 00:45:46;;;;;;;3.05;1.40;;;24.70;90.30;;;;;;5035495;28;20041;-71
2023/08/21 00:48:13;;;;;;;2.45;1.40;;;24.80;90.30;;;;;;5045055;28;20064;-70
2023/08/21 00:50:39;;;;;;;4.55;1.40;;;24.90;90.40;;;;;;5042066;28;20052;-66
2023/08/21 00:53:05;;;;;;;1.27;1.17;;;24.80;90.40;;;;;;5044738;28;20127;-72
2023/08/21 00:55:31;;;;;;;1.80;1.10;;;25.00;90.40;;;;;;5030327;28;20127;-70
2023/08/21 00:57:57;;;;;;;2.10;1.10;;;25.00;90.40;;;;;;5026745;28;20041;-70
2023/08/21 01:00:23;;;;;;;2.75;1.45;;;24.80;90.40;;;;;;5035146;28;20071;-67
2023/08/21 01:02:49;;;;;;;2.70;1.27;;;24.60;90.30;;;;;;5021485;28;20037;-67
2023/08/21 01:05:17;;;;;;;2.65;1.25;;;24.70;90.30;;;;;;5024532;28;20045;-67
2023/08/21 01:07:59;;;;;;;2.10;1.40;;;24.90;91.80;;;;;;5002403;28;20056;-70
2023/08/21 01:10:46;;;;;;;2.80;1.57;;;24.80;89.60;;;;;;5016408;28;20045;-73
2023/08/21 01:13:24;;;;;;;1.65;1.25;;;24.90;90.50;;;;;;5006684;28;20084;-69
2023/08/21 01:15:50;;;;;;;2.40;1.25;;;24.90;89.50;;;;;;5006663;28;20111;-69
2023/08/21 01:18:16;;;;;;;2.75;1.23;;;24.70;90.20;;;;;;5029638;28;20049;-73
2023/08/21 01:20:42;;;;;;;2.70;1.35;;;24.80;90.30;;;;;;5031279;28;20186;-65
2023/08/21 01:23:08;;;;;;;1.88;1.20;;;24.90;90.30;;;;;;5042709;28;20040;-67
2023/08/21 01:25:34;;;;;;;1.90;1.17;;;24.80;90.20;;;;;;5030388;28;20042;-64
2023/08/21 01:27:59;;;;;;;1.67;1.05;;;24.90;90.30;;;;;;5042542;28;20426;-66
2023/08/21 01:30:26;;;;;;;2.22;1.20;;;24.70;90.30;;;;;;5048668;28;20557;-65
2023/08/21 01:32:57;;;;;;;2.08;1.25;;;24.70;90.20;;;;;;5024524;28;20052;-69
2023/08/21 01:35:23;;;;;;;2.65;1.20;;;25.10;90.60;;;;;;5038520;28;20474;-72
2023/08/21 01:37:49;;;;;;;2.67;1.13;;;24.90;90.30;;;;;;5013817;28;20073;-68
2023/08/21 01:40:22;;;;;;;1.52;1.02;;;24.90;90.30;;;;;;5048724;28;20048;-74
2023/08/21 01:42:47;;;;;;;3.20;1.15;;;24.80;90.40;;;;;;5035133;28;20057;-64
2023/08/21 01:45:13;;;;;;;1.58;1.10;;;24.80;90.20;;;;;;5048194;28;20390;-67
2023/08/21 01:47:39;;;;;;;1.33;0.98;;;24.80;90.30;;;;;;5049310;28;20474;-68
2023/08/21 01:50:05;;;;;;;2.08;1.17;;;24.60;90.20;;;;;;5047377;28;20498;-69
2023/08/21 01:52:31;;;;;;;1.95;1.30;;;24.80;90.00;;;;;;5025338;28;20487;-72
2023/08/21 01:54:57;;;;;;;1.90;0.93;;;24.60;90.20;;;;;;5042321;28;20045;-67
2023/08/21 01:57:23;;;;;;;1.90;1.20;;;24.60;90.20;;;;;;5033495;28;20049;-66
2023/08/21 01:59:48;;;;;;;2.75;0.90;;;24.70;90.20;;;;;;5043006;28;20119;-66
2023/08/21 02:02:14;;;;;;;2.33;0.90;;;24.70;90.20;;;;;;5027642;28;20135;-66
2023/08/21 02:04:40;;;;;;;1.85;0.82;;;24.80;90.30;;;;;;5040121;28;20047;-68
2023/08/21 02:07:07;;;;;;;1.42;0.82;;;24.80;90.30;;;;;;5016246;28;20116;-66
2023/08/21 02:09:33;;;;;;;1.38;1.00;;;24.50;90.20;;;;;;5049383;28;20116;-65
2023/08/21 02:11:58;;;;;;;2.78;1.33;;;24.50;90.20;;;;;;5008391;28;20113;-65
2023/08/21 02:14:24;;;;;;;2.33;1.20;;;24.50;90.10;;;;;;5023804;28;20052;-68
2023/08/21 02:16:50;;;;;;;2.03;1.27;;;24.80;90.20;;;;;;5034535;28;20126;-67
2023/08/21 02:19:16;;;;;;;2.03;1.13;;;24.70;90.30;;;;;;5032956;28;20049;-66
2023/08/21 02:21:41;;;;;;;1.23;0.90;;;24.60;90.20;;;;;;5028637;28;20053;-68
2023/08/21 02:24:07;;;;;;;1.95;1.00;;;24.50;90.10;;;;;;5040978;28;20037;-68
2023/08/21 02:26:33;;;;;;;1.83;0.85;;;24.60;90.10;;;;;;5023322;28;20049;-69
2023/08/21 02:28:59;;;;;;;1.95;1.10;;;24.50;90.10;;;;;;5041453;28;20124;-68
2023/08/21 02:31:24;;;;;;;1.42;1.00;;;24.70;90.10;;;;;;5041310;28;20096;-70
2023/08/21 02:33:50;;;;;;;2.78;1.27;;;24.80;90.20;;;;;;5044133;28;20344;-71
2023/08/21 02:36:16;;;;;;;2.15;1.00;;;24.30;89.80;;;;;;5065446;28;20044;-68
2023/08/21 02:38:42;;;;;;;1.35;0.95;;;24.50;90.00;;;;;;5052606;28;20499;-68
2023/08/21 02:41:08;;;;;;;2.28;1.00;;;24.30;90.00;;;;;;5049663;28;20044;-69
2023/08/21 02:43:34;;;;;;;1.40;0.90;;;24.60;90.10;;;;;;5051455;28;20032;-64
2023/08/21 02:45:59;;;;;;;2.58;1.30;;;24.40;90.00;;;;;;5017832;28;20498;-70
2023/08/21 02:48:25;;;;;;;2.78;1.10;;;24.70;90.10;;;;;;5049542;28;20110;-72
2023/08/21 02:50:51;;;;;;;1.95;1.10;;;24.60;90.10;;;;;;5063806;28;20454;-74
2023/08/21 02:53:17;;;;;;;1.88;1.10;;;24.40;90.00;;;;;;5036007;28;20041;-70
2023/08/21 02:55:42;;;;;;;1.02;0.90;;;24.40;90.00;;;;;;5055006;28;20052;-73
2023/08/21 02:58:08;;;;;;;2.33;1.10;;;24.70;90.00;;;;;;5037800;28;20051;-71
2023/08/21 03:00:35;;;;;;;2.05;1.05;;;24.50;90.00;;;;;;5062016;28;20116;-77
2023/08/21 03:03:01;;;;;;;2.83;1.15;;;24.50;90.00;;;;;;5037374;28;20487;-70
2023/08/21 03:05:27;;;;;;;1.85;1.10;;;24.40;89.90;;;;;;5039481;28;20099;-65
2023/08/21 03:07:52;;;;;;;2.42;1.17;;;24.40;90.00;;;;;;5013957;28;20097;-68
2023/08/21 03:10:18;;;;;;;3.17;1.50;;;24.40;89.90;;;;;;5072528;28;20044;-74
2023/08/21 03:12:44;;;;;;;2.78;1.38;;;24.70;90.00;;;;;;5063573;28;20079;-72
2023/08/21 03:15:10;;;;;;;2.92;1.30;;;24.40;89.90;;;;;;5067778;28;20048;-69
2023/08/21 03:17:36;;;;;;;3.83;1.45;;;24.50;90.00;;;;;;5058601;28;20128;-70
2023/08/21 03:20:04;;;;;;;2.45;1.30;;;24.40;90.00;;;;;;5071860;28;20044;-73
2023/08/21 03:22:31;;;;;;;3.58;1.60;;;24.40;89.90;;;;;;5056107;28;20049;-74
2023/08/21 03:24:57;;;;;;;2.85;1.38;;;24.50;90.00;;;;;;5020925;28;20052;-72
2023/08/21 03:27:24;;;;;;;4.28;1.63;;;24.40;90.00;;;;;;5039896;28;20394;-73
2023/08/21 03:29:50;;;;;;;3.97;1.77;;;24.40;90.00;;;;;;5073509;28;20052;-73
2023/08/21 03:32:16;;;;;;;4.93;1.70;;;24.50;90.00;;;;;;5074404;28;20045;-77
2023/08/21 03:34:42;;;;;;;3.55;1.52;;;24.40;90.00;;;;;;5056465;28;20056;-75
2023/08/21 03:37:08;;;;;;;3.83;1.65;;;24.50;90.00;;;;;;5074313;28;20115;-77
2023/08/21 03:39:34;;;;;;;2.63;1.40;;;24.40;89.90;;;;;;5046613;28;20052;-74
2023/08/21 03:42:00;;;;;;;3.97;1.60;;;24.50;90.00;;;;;;5054225;28;20080;-78
2023/08/21 03:44:25;;;;;;;3.17;1.40;;;24.40;90.00;;;;;;5036535;28;20095;-76
2023/08/21 03:46:51;;;;;;;3.53;1.50;;;24.60;90.00;;;;;;5067996;28;20063;-78
2023/08/21 03:49:17;;;;;;;3.53;1.50;;;24.50;90.00;;;;;;5079812;28;20047;-76
2023/08/21 03:51:42;;;;;;;4.18;1.60;;;24.20;89.80;;;;;;5071253;28;20087;-77
2023/08/21 03:54:09;;;;;;;3.22;1.30;;;24.30;89.80;;;;;;5069041;28;20049;-76
2023/08/21 03:56:35;;;;;;;3.83;1.45;;;24.40;89.90;;;;;;5048472;28;20110;-76
2023/08/21 03:59:00;;;;;;;2.75;1.27;;;24.30;89.70;;;;;;5067104;28;20041;-69
2023/08/21 04:01:26;;;;;;;2.88;1.38;;;24.20;89.60;;;;;;5043559;28;20036;-76
2023/08/21 04:03:52;;;;;;;2.28;1.25;;;24.30;89.80;;;;;;5069724;28;20040;-77
2023/08/21 04:06:18;;;;;;;2.75;1.20;;;24.00;89.60;;;;;;5069329;28;20048;-72
2023/08/21 04:08:43;;;;;;;1.65;0.82;;;24.40;91.30;;;;;;5049311;28;20052;-76
2023/08/21 04:11:09;;;;;;;3.70;1.10;;;24.50;89.90;;;;;;5040261;28;20074;-71
2023/08/21 04:13:35;;;;;;;3.15;1.10;;;24.30;89.60;;;;;;5023864;28;20068;-62
2023/08/21 04:16:01;;;;;;;3.35;1.17;;;24.30;89.70;;;;;;5047991;28;20701;-79
2023/08/21 04:18:26;;;;;;;2.65;0.90;;;24.40;89.70;;;;;;5052982;28;20048;-78
2023/08/21 04:20:52;;;;;;;3.03;0.90;;;24.20;89.50;;;;;;5038846;28;20132;-78
2023/08/21 04:23:18;;;;;;;1.73;0.90;;;24.30;89.50;;;;;;5052202;28;20047;-77
2023/08/21 04:25:44;;;;;;;2.03;0.82;;;24.40;89.60;;;;;;5048465;28;20044;-76
2023/08/21 04:28:10;;;;;;;1.67;0.90;;;24.30;89.40;;;;;;5046859;28;20052;-77
2023/08/21 04:30:35;;;;;;;2.33;1.00;;;24.20;89.40;;;;;;5020682;28;20135;-76
2023/08/21 04:33:01;;;;;;;2.00;0.90;;;24.40;89.40;;;;;;5020701;28;20061;-74
2023/08/21 04:35:27;;;;;;;3.10;1.30;;;24.30;89.00;;;;;;5042282;28;20063;-77
2023/08/21 04:37:53;;;;;;;2.08;1.20;;;24.10;89.20;;;;;;5085325;28;20119;-77
2023/08/21 04:40:21;;;;;;;3.17;1.20;;;24.50;89.60;;;;;;5072343;28;20440;-72
2023/08/21 04:42:47;;;;;;;1.85;1.20;;;24.40;89.40;;;;;;5051356;28;20056;-68
2023/08/21 04:45:13;;;;;;;2.67;1.20;;;24.40;89.50;;;;;;5067994;28;20497;-79
2023/08/21 04:47:38;;;;;;;2.88;1.20;;;24.30;89.40;;;;;;5080957;28;20194;-72
2023/08/21 04:50:05;;;;;;;3.33;1.20;;;24.40;89.40;;;;;;5053367;28;20080;-78
2023/08/21 04:52:30;;;;;;;3.13;1.15;;;24.20;89.10;;;;;;5064354;28;20107;-67
2023/08/21 04:54:56;;;;;;;3.08;1.30;;;24.50;89.30;;;;;;5065059;28;20195;-75
2023/08/21 04:57:22;;;;;;;3.60;1.30;;;24.30;89.90;;;;;;5046845;28;20051;-77
2023/08/21 04:59:48;;;;;;;2.85;1.10;;;24.60;89.40;;;;;;5053451;28;20410;-76
2023/08/21 05:02:14;;;;;;;3.88;1.35;;;24.50;89.10;;;;;;5069139;28;20055;-75
2023/08/21 05:04:40;;;;;;;2.95;1.30;;;24.30;89.00;;;;;;5063332;28;20132;-74
2023/08/21 05:07:05;;;;;;;3.85;1.30;;;24.60;89.00;;;;;;5049023;28;20068;-70
2023/08/21 05:09:32;;;;;;;3.90;1.38;;;24.80;89.00;;;;;;5060229;28;20335;-75
2023/08/21 05:11:57;;;;;;;3.75;1.50;;;24.60;88.90;;;;;;5066042;28;20060;-78
2023/08/21 05:14:23;;;;;;;3.40;1.20;;;24.60;88.60;;;;;;5045611;28;20060;-73
2023/08/21 05:16:49;;;;;;;3.65;1.50;;;24.60;88.50;;;;;;5065743;28;20496;-78
2023/08/21 05:19:16;;;;;;;3.72;1.50;;;24.90;88.50;;;;;;5060737;28;20032;-78
2023/08/21 05:21:41;;;;;;;3.65;1.33;;;24.80;88.30;;;;;;5051186;28;20095;-75
2023/08/21 05:24:07;;;;;;;2.72;1.20;;;25.10;88.20;;;;;;5070677;28;20451;-74
2023/08/21 05:26:35;;;;;;;4.43;1.77;;;25.20;88.20;;;;;;5068024;28;20048;-75
2023/08/21 05:29:00;;;;;;;4.05;1.33;;;25.10;88.30;;;;;;5068858;28;20040;-76
2023/08/21 05:31:26;;;;;;;4.15;1.30;;;25.10;88.00;;;;;;5050026;28;20124;-75
2023/08/21 05:33:52;;;;;;;3.05;1.50;;;25.00;87.90;;;;;;5062634;28;20067;-72
2023/08/21 05:36:18;;;;;;;4.40;1.33;;;25.10;87.60;;;;;;5067146;28;20082;-77
2023/08/21 05:38:43;;;;;;;3.10;1.20;;;25.30;87.80;;;;;;5032617;28;20639;-78
2023/08/21 05:41:10;;;;;;;2.47;1.15;;;24.90;87.30;;;;;;5049875;28;20135;-76
2023/08/21 05:43:36;;;;;;;5.82;1.30;;;25.20;87.30;;;;;;5032832;28;20406;-66
2023/08/21 05:46:01;;;;;;;2.83;1.10;;;25.50;87.30;;;;;;5067713;28;20043;-77
2023/08/21 05:48:27;;;;;;;4.75;1.50;;;25.80;87.10;;;;;;5044033;28;20548;-79
2023/08/21 05:50:53;;;;;;;3.72;1.20;;;25.70;86.80;;;;;;5066710;28;20112;-65
2023/08/21 05:53:19;;;;;;;3.17;1.20;;;25.50;86.40;;;;;;5058225;28;20049;-65
2023/08/21 05:55:45;;;;;;;1.95;1.15;;;25.80;86.60;;;;;;5054733;28;20047;-73
2023/08/21 05:58:10;;;;;;;2.38;1.20;;;25.90;86.30;;;;;;5046046;28;20053;-76
2023/08/21 06:00:38;;;;;;;4.07;1.30;;;25.80;85.90;;;;;;5029287;28;20133;-73
2023/08/21 06:03:04;;;;;;;1.90;1.17;;;26.10;86.00;;;;;;5040850;28;20052;-66
2023/08/21 06:05:30;;;;;;;3.25;1.30;;;25.90;85.60;;;;;;5063537;28;20037;-63
2023/08/21 06:07:55;;;;;;;2.22;0.90;;;26.20;85.80;;;;;;5065821;28;20032;-63
2023/08/21 06:10:21;;;;;;;2.30;1.20;;;26.20;85.50;;;;;;5042345;28;20060;-70
2023/08/21 06:12:48;;;;;;;1.27;0.90;;;26.20;85.30;;;;;;5057875;28;20552;-64
2023/08/21 06:15:13;;;;;;;7.43;2.90;;;26.30;85.10;;;;;;5060906;28;20067;-62
2023/08/21 06:17:40;;;;;;;7.72;2.60;;;26.60;84.30;;;;;;5068120;28;20041;-76
2023/08/21 06:20:08;;;;;;;8.02;3.05;;;26.30;83.70;;;;;;5047402;28;20128;-62
2023/08/21 06:22:35;;;;;;;5.05;2.00;;;26.40;83.50;;;;;;5064858;28;20052;-71
2023/08/21 06:25:00;;;;;;;4.72;1.80;;;26.00;83.70;;;;;;5057226;28;20371;-63
2023/08/21 06:27:26;;;;;;;6.60;2.20;;;26.30;83.70;;;;;;5063627;28;20044;-75
2023/08/21 06:29:52;;;;;;;8.60;3.00;;;26.20;83.70;;;;;;5069173;28;20109;-75
2023/08/21 06:32:18;;;;;;;7.72;3.15;;;26.10;83.60;;;;;;5073061;28;20059;-65
2023/08/21 06:34:44;;;;;;;7.80;2.97;;;26.10;83.60;;;;;;5072139;28;20581;-72
2023/08/21 06:37:10;;;;;;;5.65;2.72;;;25.90;83.30;;;;;;5071203;28;20037;-64
2023/08/21 06:39:36;;;;;;;9.60;3.13;;;26.30;83.80;;;;;;5071136;28;20048;-62
2023/08/21 06:42:02;;;;;;;8.63;3.60;;;26.30;83.80;;;;;;5073939;28;20047;-64
2023/08/21 06:44:28;;;;;;;8.48;3.20;;;26.00;83.70;;;;;;5038881;28;20041;-74
2023/08/21 06:46:53;;;;;;;6.97;2.85;;;26.10;83.90;;;;;;5051094;28;20510;-68
2023/08/21 06:49:19;;;;;;;9.20;3.05;;;26.00;84.10;;;;;;5046486;28;20052;-66
2023/08/21 06:51:45;;;;;;;9.02;2.80;;;26.10;84.20;;;;;;5054178;28;20056;-64
2023/08/21 06:54:11;;;;;;;6.93;2.25;;;26.20;84.30;;;;;;5073402;28;20063;-69
2023/08/21 06:56:36;;;;;;;7.25;2.13;;;26.20;84.40;;;;;;5034273;28;20048;-62
2023/08/21 06:59:02;;;;;;;5.85;2.20;;;26.20;84.30;;;;;;5054772;28;20049;-65
2023/08/21 07:01:28;;;;;;;7.25;2.30;;;26.30;84.40;;;;;;5072949;28;20040;-65
2023/08/21 07:03:54;;;;;;;6.07;2.20;;;26.60;84.30;;;;;;5054255;28;20529;-64
2023/08/21 07:06:20;;;;;;;5.57;2.08;;;26.40;84.00;;;;;;5073523;28;20363;-64
2023/08/21 07:08:46;;;;;;;7.55;2.33;;;26.60;84.20;;;;;;5072173;28;20410;-65
2023/08/21 07:11:12;;;;;;;6.88;1.73;;;26.30;83.70;;;;;;5054495;28;20059;-66
2023/08/21 07:13:38;;;;;;;8.82;2.28;;;26.40;83.70;;;;;;5071708;28;20045;-67
2023/08/21 07:16:05;;;;;;;5.40;2.38;;;26.50;83.50;;;;;;5064228;28;20509;-61
2023/08/21 07:18:34;;;;;;;6.85;2.58;;;26.70;83.90;;;;;;5064209;28;20068;-61
2023/08/21 07:21:00;;;;;;;7.68;2.10;;;26.70;83.70;;;;;;5061798;28;20521;-75
2023/08/21 07:23:26;;;;;;;8.00;2.53;;;26.80;83.80;;;;;;5063611;28;20044;-61
2023/08/21 07:25:52;;;;;;;6.60;2.15;;;26.40;83.10;;;;;;5066915;28;20055;-62
2023/08/21 07:28:18;;;;;;;6.43;2.22;;;26.70;83.10;;;;;;5059473;28;20051;-64
2023/08/21 07:30:44;;;;;;;7.25;1.90;;;26.90;83.30;;;;;;5064978;28;20040;-70
2023/08/21 07:33:10;;;;;;;13.60;3.03;;;26.70;82.80;;;;;;5057062;28;20067;-70
2023/08/21 07:35:36;;;;;;;9.70;1.92;;;26.90;82.40;;;;;;5056932;28;20398;-67
2023/08/21 07:38:02;;;;;;;8.15;1.92;;;26.90;82.00;;;;;;5063027;28;20110;-66
2023/08/21 07:40:28;;;;;;;7.30;2.20;;;27.20;82.00;;;;;;5045278;28;20052;-68
2023/08/21 07:42:53;;;;;;;8.63;1.88;;;26.90;81.50;;;;;;5068702;28;20032;-74
2023/08/21 07:45:19;;;;;;;8.23;2.45;;;27.00;81.40;;;;;;5064140;28;20056;-64
2023/08/21 07:47:45;;;;;;;7.90;2.00;;;27.10;81.30;;;;;;5065812;28;20046;-66
2023/08/21 07:50:11;;;;;;;7.95;2.00;;;27.30;81.20;;;;;;5057956;28;20117;-63
2023/08/21 07:52:37;;;;;;;5.35;1.67;;;27.30;80.90;;;;;;5054882;28;20048;-76
2023/08/21 07:55:03;;;;;;;6.47;2.20;;;27.10;80.10;;;;;;5056712;28;20040;-61
2023/08/21 07:57:29;;;;;;;6.63;2.00;;;27.10;79.40;;;;;;5056293;28;20043;-72
2023/08/21 07:59:55;;;;;;;5.40;1.90;;;27.10;79.20;;;;;;5052445;28;20084;-67
2023/08/21 08:02:21;;;;;;;5.32;1.40;;;27.20;78.60;;;;;;5055362;28;20057;-72
2023/08/21 08:04:47;;;;;;;7.93;2.25;;;27.10;78.20;;;;;;5053606;28;20045;-74
2023/08/21 08:07:13;;;;;;;5.15;1.65;;;26.80;77.90;;;;;;5060733;28;20084;-75
2023/08/21 08:09:39;;;;;;;7.40;2.00;;;27.10;78.10;;;;;;5058761;28;20045;-75
2023/08/21 08:12:10;;;;;;;6.30;1.70;;;26.80;78.10;;;;;;5033090;28;20051;-71
2023/08/21 08:14:39;;;;;;;5.80;1.67;;;27.20;76.80;;;;;;5030292;28;20068;-76
2023/08/21 08:17:07;;;;;;;6.65;2.20;;;27.00;76.80;;;;;;5053758;28;20123;-76
2023/08/21 08:19:33;;;;;;;6.50;1.90;;;27.00;76.30;;;;;;5059807;28;20155;-76
2023/08/21 08:21:59;;;;;;;6.63;1.83;;;27.10;77.30;;;;;;5061264;28;20051;-61
2023/08/21 08:24:25;;;;;;;4.97;1.67;;;27.00;76.90;;;;;;5057141;28;20914;-62
2023/08/21 08:26:50;;;;;;;7.07;2.00;;;26.80;76.80;;;;;;5057364;28;20037;-73
2023/08/21 08:29:19;;;;;;;6.07;1.80;;;27.00;77.20;;;;;;5042267;28;20112;-72
2023/08/21 08:31:46;;;;;;;5.20;1.80;;;27.00;76.60;;;;;;5038670;28;20046;-73
2023/08/21 08:34:11;;;;;;;6.25;2.05;;;27.20;76.30;;;;;;5053677;28;20203;-72
2023/08/21 08:36:37;;;;;;;3.35;1.30;;;27.10;76.00;;;;;;5026542;28;20127;-70
2023/08/21 08:39:03;;;;;;;5.40;1.60;;;27.10;75.90;;;;;;5053664;28;20542;-66
2023/08/21 08:41:29;;;;;;;6.38;1.85;;;27.40;76.30;;;;;;5033710;28;20048;-74
2023/08/21 08:43:57;;;;;;;7.85;1.95;;;27.20;76.00;;;;;;5054506;28;20052;-76
2023/08/21 08:46:23;;;;;;;9.68;1.92;;;27.40;75.90;;;;;;5039104;28;20045;-76
2023/08/21 08:48:49;;;;;;;7.68;1.92;;;27.30;75.70;;;;;;5053562;28;20048;-73
2023/08/21 08:51:14;;;;;;;7.22;1.83;;;27.30;75.30;;;;;;5038833;28;20612;-74
2023/08/21 08:53:40;;;;;;;5.45;1.83;;;27.30;75.20;;;;;;5058445;28;20546;-78
2023/08/21 08:56:06;;;;;;;3.80;1.60;;;27.50;74.90;;;;;;5059689;28;20051;-78
2023/08/21 08:58:32;;;;;;;5.43;1.85;;;27.30;74.50;;;;;;5039036;28;20059;-75
2023/08/21 09:00:58;;;;;;;6.50;1.98;;;27.60;74.30;;;;;;5056854;28;20052;-74
2023/08/21 09:03:24;;;;;;;8.75;1.67;;;27.70;74.20;;;;;;5056132;28;20110;-70
2023/08/21 09:05:50;;;;;;;16.77;2.75;;;27.80;74.00;;;;;;5059502;28;20414;-61
2023/08/21 09:08:16;;;;;;;10.55;1.98;;;27.80;73.10;;;;;;5047385;28;20040;-65
2023/08/21 09:10:43;;;;;;;5.93;1.55;;;27.70;72.30;;;;;;5056680;28;20110;-61
2023/08/21 09:13:12;;;;;;;8.23;2.47;;;27.40;72.10;;;;;;5049821;28;20144;-77
2023/08/21 09:15:38;;;;;;;6.53;2.00;;;27.50;70.90;;;;;;5046527;28;20044;-61
2023/08/21 09:18:04;;;;;;;8.27;1.90;;;27.40;72.10;;;;;;5047442;28;20036;-73
2023/08/21 09:20:35;;;;;;;4.75;1.60;;;27.50;72.40;;;;;;5064146;28;20439;-77
2023/08/21 09:23:01;;;;;;;6.40;2.47;;;27.60;72.60;;;;;;5059439;28;20404;-61
2023/08/21 09:25:27;;;;;;;4.40;1.73;;;27.40;72.20;;;;;;5059481;28;20044;-72
2023/08/21 09:27:53;;;;;;;6.22;1.98;;;27.50;72.60;;;;;;5047259;28;20125;-68
2023/08/21 09:30:19;;;;;;;5.43;1.95;;;27.50;72.30;;;;;;5067802;28;20533;-70
2023/08/21 09:33:00;;;;;;;6.68;1.60;;;27.70;72.80;;;;;;5060546;28;20048;-65
2023/08/21 09:35:26;;;;;;;3.40;1.27;;;27.50;73.00;;;;;;5056797;28;20458;-67
2023/08/21 09:37:54;;;;;;;3.65;1.40;;;27.30;72.60;;;;;;5064601;28;20051;-69
2023/08/21 09:40:21;;;;;;;3.78;1.60;;;27.40;71.80;;;;;;5047786;28;20045;-72
2023/08/21 09:42:55;;;;;;;4.40;1.63;;;27.80;72.90;;;;;;5061808;28;20585;-62
2023/08/21 09:45:25;;;;;;;8.80;1.90;;;27.40;72.70;;;;;;5060555;28;20056;-74
2023/08/21 09:47:54;;;;;;;7.70;1.80;;;27.30;71.30;;;;;;5069170;28;20047;-70
2023/08/21 09:50:21;;;;;;;5.07;1.50;;;27.60;72.90;;;;;;5068502;28;20666;-64
2023/08/21 09:52:46;;;;;;;6.05;1.45;;;27.60;73.00;;;;;;5076142;28;20036;-66
2023/08/21 09:55:15;;;;;;;6.72;1.63;;;27.70;72.80;;;;;;5049617;28;20508;-70
2023/08/21 09:57:41;;;;;;;6.05;1.73;;;27.50;72.90;;;;;;5063765;28;20049;-66
2023/08/21 10:00:15;;;;;;;6.78;1.67;;;27.70;72.80;;;;;;5019262;28;20076;-70
2023/08/21 10:02:47;;;;;;;4.00;1.50;;;27.80;72.80;;;;;;5039770;28;20642;-63
2023/08/21 10:05:14;;;;;;;3.83;1.50;;;27.60;73.00;;;;;;5034149;28;20515;-77
2023/08/21 10:07:39;;;;;;;4.18;1.50;;;27.70;72.90;;;;;;5072558;28;20490;-72
2023/08/21 10:10:05;;;;;;;4.35;1.40;;;27.60;72.70;;;;;;5065525;28;20043;-65
2023/08/21 10:12:31;;;;;;;7.50;1.88;;;27.60;72.40;;;;;;5046872;28;20213;-67
2023/08/21 10:14:57;;;;;;;5.70;2.05;;;27.80;72.90;;;;;;5051456;28;20423;-64
2023/08/21 10:17:23;;;;;;;4.75;1.40;;;27.70;72.50;;;;;;5060894;28;20048;-68
2023/08/21 10:19:55;;;;;;;6.10;1.58;;;27.10;71.80;;;;;;5040491;28;20084;-66
2023/08/21 10:22:46;;;;;;;4.95;1.60;;;27.70;72.50;;;;;;5040623;28;20482;-68
2023/08/21 10:25:22;;;;;;;3.65;1.40;;;27.50;71.50;;;;;;5036293;28;20060;-65
2023/08/21 10:28:03;;;;;;;5.75;1.88;;;27.70;71.70;;;;;;5047455;28;20045;-66
2023/08/21 10:30:29;;;;;;;5.15;1.70;;;27.60;71.80;;;;;;5062182;28;20517;-73
2023/08/21 10:32:57;;;;;;;7.13;1.50;;;27.60;72.50;;;;;;5043188;28;20045;-65
2023/08/21 10:35:30;;;;;;;4.85;1.33;;;27.40;72.10;;;;;;5068898;28;20048;-63
2023/08/21 10:38:16;;;;;;;6.22;1.63;;;27.80;71.00;;;;;;5063414;28;20114;-63
2023/08/21 10:41:06;;;;;;;3.95;1.35;;;27.30;72.30;;;;;;5048764;28;20115;-66
2023/08/21 10:43:40;;;;;;;6.68;1.60;;;27.60;71.00;;;;;;5052042;28;20041;-62
2023/08/21 10:46:07;;;;;;;4.32;1.10;;;27.60;71.20;;;;;;5067942;28;20170;-63
2023/08/21 10:48:32;;;;;;;4.55;1.40;;;27.80;72.50;;;;;;5062758;28;20058;-68
2023/08/21 10:51:01;;;;;;;4.10;1.33;;;27.60;72.00;;;;;;5063129;28;20048;-78
2023/08/21 10:53:26;;;;;;;6.90;1.60;;;27.60;72.20;;;;;;5060414;28;20238;-73
2023/08/21 10:55:54;;;;;;;4.00;1.45;;;28.00;72.20;;;;;;5029078;28;20116;-79
2023/08/21 10:58:19;;;;;;;5.78;1.60;;;27.70;72.40;;;;;;5054452;28;20410;-76
2023/08/21 11:00:45;;;;;;;4.47;1.40;;;27.70;72.10;;;;;;5065291;28;20049;-68
2023/08/21 11:03:11;;;;;;;5.00;1.40;;;27.80;72.20;;;;;;5064674;28;20053;-78
2023/08/21 11:05:37;;;;;;;7.50;1.88;;;27.80;72.00;;;;;;5068167;28;20044;-76
2023/08/21 11:08:03;;;;;;;5.53;1.77;;;27.80;72.00;;;;;;5060848;28;20045;-78
2023/08/21 11:10:30;;;;;;;12.88;2.08;;;27.90;71.40;;;;;;5046116;28;20044;-72
2023/08/21 11:12:57;;;;;;;8.13;1.73;;;27.70;71.50;;;;;;5076296;28;20091;-73
2023/08/21 11:15:24;;;;;;;4.82;1.50;;;27.90;71.80;;;;;;5065736;28;20044;-61
2023/08/21 11:18:02;;;;;;;6.05;1.80;;;27.80;71.70;;;;;;5058980;28;20051;-80
2023/08/21 11:20:31;;;;;;;3.40;1.23;;;27.80;70.90;;;;;;5062247;28;20047;-79
2023/08/21 11:23:07;;;;;;;4.57;1.50;;;27.90;72.70;;;;;;5072460;28;20040;-76
2023/08/21 11:25:39;;;;;;;5.97;1.38;;;27.90;72.90;;;;;;5068782;28;20075;-73
2023/08/21 11:28:05;;;;;;;5.25;1.30;;;27.80;72.90;;;;;;5071736;28;20139;-69
2023/08/21 11:30:34;;;;;;;6.00;1.55;;;27.90;72.70;;;;;;5070425;28;20051;-64
2023/08/21 11:33:10;;;;;;;5.38;1.60;;;28.00;73.10;;;;;;5068372;28;20131;-65
2023/08/21 11:35:36;;;;;;;5.97;1.40;;;28.00;73.60;;;;;;5032513;28;20049;-64
2023/08/21 11:38:03;;;;;;;4.28;1.20;;;28.10;73.60;;;;;;5011320;28;20395;-63
2023/08/21 11:40:29;;;;;;;4.57;1.73;;;27.90;73.40;;;;;;5037593;28;20384;-67
2023/08/21 11:43:03;;;;;;;4.43;1.30;;;27.90;73.40;;;;;;5033576;28;20136;-65
2023/08/21 11:45:29;;;;;;;4.78;1.70;;;28.10;72.60;;;;;;5034315;28;20117;-64
2023/08/21 11:47:58;;;;;;;8.50;1.40;;;28.00;73.90;;;;;;5033316;28;20052;-63
2023/08/21 11:50:23;;;;;;;5.00;1.33;;;28.20;74.30;;;;;;5021396;28;20044;-73
2023/08/21 11:52:52;;;;;;;4.55;1.35;;;28.10;74.10;;;;;;5019727;28;20054;-64
2023/08/21 11:55:18;;;;;;;4.20;1.23;;;28.00;74.30;;;;;;5012800;28;20052;-64
2023/08/21 11:57:51;;;;;;;6.07;1.65;;;27.80;74.00;;;;;;5052306;28;20120;-65
2023/08/21 12:00:22;;;;;;;6.63;1.65;;;28.10;74.90;;;;;;5035689;28;20443;-64
2023/08/21 12:02:59;;;;;;;2.80;1.40;;;28.20;74.40;;;;;;5051870;28;20111;-65
2023/08/21 12:05:25;;;;;;;5.53;1.48;;;28.20;75.10;;;;;;5051479;28;20053;-65
2023/08/21 12:07:51;;;;;;;4.65;1.20;;;28.00;74.90;;;;;;5051999;28;20049;-63
2023/08/21 12:10:24;;;;;;;3.15;1.13;;;27.90;74.60;;;;;;5046402;28;20038;-66
2023/08/21 12:12:50;;;;;;;3.97;1.30;;;27.70;75.10;;;;;;5051718;28;20048;-75
2023/08/21 12:15:16;;;;;;;2.83;1.20;;;27.90;74.80;;;;;;5042727;28;20053;-65
2023/08/21 12:17:42;;;;;;;4.63;1.20;;;28.00;74.70;;;;;;5033695;28;20083;-73
2023/08/21 12:20:10;;;;;;;4.53;1.67;;;28.10;75.10;;;;;;5033282;28;20104;-74
2023/08/21 12:22:39;;;;;;;2.95;1.30;;;27.90;74.60;;;;;;5051116;28;20190;-74
2023/08/21 12:25:06;;;;;;;4.55;1.30;;;28.10;73.90;;;;;;5052567;28;20138;-70
2023/08/21 12:27:32;;;;;;;3.90;1.42;;;28.00;74.90;;;;;;5043748;28;20053;-68
2023/08/21 12:29:57;;;;;;;3.70;1.20;;;28.10;75.10;;;;;;5033024;28;20055;-76
2023/08/21 12:32:23;;;;;;;3.28;1.25;;;28.40;75.40;;;;;;5045446;28;20072;-74
2023/08/21 12:34:49;;;;;;;5.88;1.35;;;28.40;75.60;;;;;;5067011;28;20053;-73
2023/08/21 12:37:15;;;;;;;3.75;1.30;;;28.10;75.10;;;;;;5072417;28;20044;-73
2023/08/21 12:39:41;;;;;;;3.53;1.20;;;28.40;75.30;;;;;;5070991;28;20079;-73
2023/08/21 12:42:07;;;;;;;5.47;1.23;;;28.10;75.20;;;;;;5071427;28;20049;-62
2023/08/21 12:44:34;;;;;;;2.47;1.17;;;28.20;75.80;;;;;;5065586;28;20051;-64